Teec Nos Pos, Arizona
Current Conditions -  °F | °C
As of 6:53 AM on Saturday 25 Oct 2014 (Local Time) from KCEZ Reporting Station
Clear Clear  
Wind Chill: 31°   Ceiling: Unl
Heat Index: 31°   Visibility: 10mi
Dew Point: 26°   Wind: 0mph
Humidity: 82%   Direction: NA
Pressure: 30.32"   Gusts: NA
Location:  36.91°N, 109.1°W
Report Text: KCEZ 251253Z AUTO 00000KT 10SM CLR M01/M03 A3032 RMK AO2 SLP248 T10061033
Loading
Personal Weather Stations






























Interactive Weather Map
Tropical Storm Tracking
New forecast layout! Learn more

10-Day Weather Forecast

Advertisements
Track Severe Weather on mobile